Time;durP1;ratioP1;P1;durP2;ratioP2;P2;SDS_P1;SDS_P2;PMS_P1;PMS_P2;Temp;Humidity;BMP_temperature;BMP_pressure;BME280_temperature;BME280_humidity;BME280_pressure;Samples;Min_cycle;Max_cycle;Signal;HPM_P1;HPM_P2
2023/04/23 00:00:48;;;;;;;;;;;;;;;8.82;60.13;100471.19;10522499;28;19927;-82
2023/04/23 00:05:51;;;;;;;;;;;;;;;8.79;60.46;100479.94;10525073;28;19924;-80
2023/04/23 00:10:53;;;;;;;;;;;;;;;8.81;60.21;100469.53;10505968;28;20354;-82
2023/04/23 00:15:55;;;;;;;;;;;;;;;8.93;59.72;100464.63;10542028;28;19924;-82
2023/04/23 00:20:57;;;;;;;;;;;;;;;8.74;60.95;100467.09;10563982;28;19924;-81
2023/04/23 00:25:59;;;;;;;;;;;;;;;8.64;61.11;100469.81;10570588;28;19924;-79
2023/04/23 00:31:01;;;;;;;;;;;;;;;8.55;60.69;100469.53;10535486;28;19928;-82
2023/04/23 00:36:03;;;;;;;;;;;;;;;8.48;60.76;100471.69;10519007;28;19942;-81
2023/04/23 00:41:05;;;;;;;;;;;;;;;8.51;60.55;100460.25;10537351;28;19931;-80
2023/04/23 00:46:07;;;;;;;;;;;;;;;8.43;60.82;100467.06;10532751;28;19932;-81
2023/04/23 00:51:10;;;;;;;;;;;;;;;8.35;61.70;100461.31;10546083;28;19931;-81
2023/04/23 00:56:12;;;;;;;;;;;;;;;8.31;60.50;100457.41;10581325;28;20377;-81
2023/04/23 01:01:14;;;;;;;;;;;;;;;8.11;61.47;100460.94;10568914;28;20011;-79
2023/04/23 01:06:16;;;;;;;;;;;;;;;8.12;62.03;100455.19;10526511;28;19924;-84
2023/04/23 01:11:18;;;;;;;;;;;;;;;8.26;60.87;100460.97;10573673;28;20302;-80
2023/04/23 01:16:21;;;;;;;;;;;;;;;8.30;61.60;100481.19;10542889;28;19924;-80
2023/04/23 01:21:23;;;;;;;;;;;;;;;8.11;61.18;100459.00;10526979;28;19924;-83
2023/04/23 01:26:24;;;;;;;;;;;;;;;8.02;61.78;100449.72;10573054;28;20311;-81
2023/04/23 01:31:27;;;;;;;;;;;;;;;8.01;61.25;100448.06;10518222;28;20299;-80
2023/04/23 01:36:30;;;;;;;;;;;;;;;7.94;62.01;100452.13;10540630;28;20319;-82
2023/04/23 01:41:32;;;;;;;;;;;;;;;8.20;61.11;100458.50;10537243;28;19931;-79
2023/04/23 01:46:34;;;;;;;;;;;;;;;8.03;61.07;100459.56;10535642;28;19924;-82
2023/04/23 01:51:36;;;;;;;;;;;;;;;7.95;61.19;100459.25;10539305;28;20326;-80
2023/04/23 01:56:38;;;;;;;;;;;;;;;7.94;61.63;100457.59;10562369;28;19931;-82
2023/04/23 02:01:42;;;;;;;;;;;;;;;7.78;61.49;100454.81;10539447;28;19931;-83
2023/04/23 02:06:45;;;;;;;;;;;;;;;7.72;62.13;100452.34;10515330;28;19928;-81
2023/04/23 02:11:47;;;;;;;;;;;;;;;7.67;62.41;100455.88;10523262;28;19926;-81
2023/04/23 02:16:51;;;;;;;;;;;;;;;7.59;62.77;100452.81;10545631;28;19931;-82
2023/04/23 02:21:53;;;;;;;;;;;;;;;7.33;63.17;100458.16;10551992;28;19928;-81
2023/04/23 02:26:56;;;;;;;;;;;;;;;7.28;63.39;100444.44;10517713;28;19924;-81
2023/04/23 02:31:58;;;;;;;;;;;;;;;7.36;64.26;100448.59;10537786;28;19923;-82
2023/04/23 02:37:00;;;;;;;;;;;;;;;7.39;63.12;100453.53;10538147;28;19946;-79
2023/04/23 02:42:03;;;;;;;;;;;;;;;7.42;63.78;100445.63;10536101;28;19931;-80
2023/04/23 02:47:05;;;;;;;;;;;;;;;7.42;62.94;100451.09;10582793;28;19970;-80
2023/04/23 02:52:07;;;;;;;;;;;;;;;7.42;63.03;100455.72;10551114;28;19935;-82
2023/04/23 02:57:09;;;;;;;;;;;;;;;7.76;62.92;100443.31;10525836;28;20375;-79
2023/04/23 03:02:13;;;;;;;;;;;;;;;7.52;62.70;100440.22;10538785;28;19924;-82
2023/04/23 03:07:16;;;;;;;;;;;;;;;7.57;62.82;100447.63;10555236;28;19931;-83
2023/04/23 03:12:18;;;;;;;;;;;;;;;8.14;60.98;100442.06;10534724;28;19924;-80
2023/04/23 03:17:20;;;;;;;;;;;;;;;8.63;59.67;100436.16;10565376;28;20310;-82
2023/04/23 03:22:23;;;;;;;;;;;;;;;9.30;58.34;100439.66;10592748;28;19923;-80
2023/04/23 03:27:26;;;;;;;;;;;;;;;9.76;56.48;100450.47;10580947;28;19927;-81
2023/04/23 03:32:28;;;;;;;;;;;;;;;10.19;55.23;100451.63;10565560;28;20303;-83
2023/04/23 03:37:29;;;;;;;;;;;;;;;10.51;54.46;100452.00;10547553;28;19924;-80
2023/04/23 03:42:32;;;;;;;;;;;;;;;10.42;55.19;100464.69;10549271;28;19924;-81
2023/04/23 03:47:35;;;;;;;;;;;;;;;11.10;53.10;100456.44;10544491;28;19928;-81
2023/04/23 03:52:38;;;;;;;;;;;;;;;11.04;53.19;100460.34;10538608;28;19924;-83
2023/04/23 03:57:41;;;;;;;;;;;;;;;11.28;53.01;100467.78;10540032;28;19930;-81
2023/04/23 04:03:04;;;;;;;;;;;;;;;11.65;51.41;100467.97;10598491;28;19928;-81
2023/04/23 04:08:05;;;;;;;;;;;;;;;11.42;51.89;100466.00;10527115;28;20295;-80
2023/04/23 04:13:07;;;;;;;;;;;;;;;11.94;51.56;100459.66;10562100;28;19931;-81
2023/04/23 04:18:09;;;;;;;;;;;;;;;12.46;49.91;100476.28;10584608;28;19931;-80
2023/04/23 04:23:11;;;;;;;;;;;;;;;12.18;50.84;100469.81;10566980;28;19977;-83
2023/04/23 04:28:14;;;;;;;;;;;;;;;12.01;51.31;100470.31;10568110;28;19925;-81
2023/04/23 04:33:16;;;;;;;;;;;;;;;12.35;50.34;100470.13;10578028;28;19924;-82
2023/04/23 04:38:18;;;;;;;;;;;;;;;12.86;49.19;100469.34;10540601;28;19924;-83
2023/04/23 04:43:20;;;;;;;;;;;;;;;13.18;48.94;100466.59;10568387;28;19931;-80
2023/04/23 04:48:22;;;;;;;;;;;;;;;13.48;48.15;100467.16;10559302;28;20409;-80
2023/04/23 04:53:24;;;;;;;;;;;;;;;14.03;46.70;100465.22;10563033;28;20329;-83
2023/04/23 04:58:26;;;;;;;;;;;;;;;14.14;46.71;100474.09;10581150;28;19924;-84
2023/04/23 05:03:28;;;;;;;;;;;;;;;14.48;45.57;100476.41;10541491;28;19931;-82
2023/04/23 05:08:30;;;;;;;;;;;;;;;14.68;45.79;100472.34;10586084;28;20565;-79
2023/04/23 05:13:32;;;;;;;;;;;;;;;15.06;45.54;100473.59;10571486;28;20411;-81
2023/04/23 05:18:34;;;;;;;;;;;;;;;15.34;44.53;100481.75;10575181;28;19924;-79
2023/04/23 05:23:36;;;;;;;;;;;;;;;15.14;45.18;100474.00;10567865;28;19930;-82
2023/04/23 05:28:37;;;;;;;;;;;;;;;15.21;44.24;100480.69;10596206;28;19930;-83
2023/04/23 05:33:39;;;;;;;;;;;;;;;15.31;44.37;100485.16;10547496;28;20348;-81
2023/04/23 05:38:41;;;;;;;;;;;;;;;15.76;44.07;100485.88;10560445;28;19924;-82
2023/04/23 05:43:43;;;;;;;;;;;;;;;16.04;43.29;100493.97;10546556;28;20029;-82
2023/04/23 05:48:45;;;;;;;;;;;;;;;16.11;42.89;100502.59;10555129;28;19971;-81
2023/04/23 05:53:47;;;;;;;;;;;;;;;16.35;42.64;100499.41;10550356;28;19923;-81
2023/04/23 05:58:49;;;;;;;;;;;;;;;16.96;42.33;100495.56;10569888;28;19923;-83
2023/04/23 06:03:51;;;;;;;;;;;;;;;17.43;41.42;100499.22;10589065;28;19971;-80
2023/04/23 06:08:53;;;;;;;;;;;;;;;17.16;41.39;100494.06;10571739;28;19948;-83
2023/04/23 06:13:55;;;;;;;;;;;;;;;16.37;42.88;100503.50;10555800;28;19928;-85
2023/04/23 06:18:58;;;;;;;;;;;;;;;17.06;41.96;100484.13;10567905;28;19924;-82
2023/04/23 06:24:00;;;;;;;;;;;;;;;16.84;41.98;100495.41;10596884;28;19931;-79
2023/04/23 06:29:02;;;;;;;;;;;;;;;18.05;40.00;100509.81;10549639;28;20439;-82
2023/04/23 06:34:07;;;;;;;;;;;;;;;18.31;39.62;100508.81;10533511;28;19924;-81
2023/04/23 06:39:09;;;;;;;;;;;;;;;18.36;38.96;100509.44;10567560;28;19928;-82
2023/04/23 06:44:20;;;;;;;;;;;;;;;18.35;38.57;100513.38;10590863;28;19930;-82
2023/04/23 06:49:28;;;;;;;;;;;;;;;19.07;37.65;100514.16;10608856;28;19924;-81
2023/04/23 06:54:30;;;;;;;;;;;;;;;19.30;37.65;100513.78;10574381;28;19923;-84
2023/04/23 06:59:32;;;;;;;;;;;;;;;19.44;36.81;100517.91;10587784;28;19928;-83
2023/04/23 07:04:35;;;;;;;;;;;;;;;18.61;37.97;100520.72;10548655;28;19935;-83
2023/04/23 07:09:38;;;;;;;;;;;;;;;18.29;37.63;100511.13;10576990;28;19924;-85
2023/04/23 07:14:40;;;;;;;;;;;;;;;18.41;37.77;100518.75;10586037;28;20415;-85
2023/04/23 07:19:42;;;;;;;;;;;;;;;19.09;36.36;100517.44;10529567;28;19950;-81
2023/04/23 07:24:44;;;;;;;;;;;;;;;19.94;35.12;100525.19;10571477;28;20288;-82
2023/04/23 07:29:46;;;;;;;;;;;;;;;19.57;35.53;100529.88;10586056;28;20018;-85
2023/04/23 07:34:48;;;;;;;;;;;;;;;19.22;35.29;100529.41;10582642;28;20014;-83
2023/04/23 07:39:50;;;;;;;;;;;;;;;20.11;34.62;100533.31;10537525;28;20038;-82
2023/04/23 07:44:52;;;;;;;;;;;;;;;20.59;33.74;100525.31;10593182;28;19931;-85
2023/04/23 07:49:54;;;;;;;;;;;;;;;20.38;33.65;100544.94;10564245;28;19924;-82
2023/04/23 07:54:56;;;;;;;;;;;;;;;20.66;33.18;100531.94;10550283;28;20376;-82
2023/04/23 07:59:58;;;;;;;;;;;;;;;20.10;34.08;100539.25;10535860;28;20457;-82
2023/04/23 08:05:00;;;;;;;;;;;;;;;20.02;34.04;100542.97;10567769;28;19924;-84
2023/04/23 08:10:04;;;;;;;;;;;;;;;20.22;33.70;100546.78;10546227;28;19963;-88
2023/04/23 08:15:07;;;;;;;;;;;;;;;20.13;33.11;100550.53;10547618;28;19924;-85
2023/04/23 08:20:14;;;;;;;;;;;;;;;20.53;33.60;100560.97;10537391;28;20414;-83
2023/04/23 08:25:15;;;;;;;;;;;;;;;20.35;33.63;100559.56;10568409;28;19974;-81
2023/04/23 08:30:17;;;;;;;;;;;;;;;20.30;34.24;100566.16;10570471;28;19924;-82
2023/04/23 08:35:19;;;;;;;;;;;;;;;20.33;33.19;100567.47;10530074;28;19932;-79
2023/04/23 08:40:21;;;;;;;;;;;;;;;19.93;33.57;100564.53;10505852;28;19924;-82
2023/04/23 08:45:25;;;;;;;;;;;;;;;20.26;33.69;100564.44;10560512;28;19924;-80
2023/04/23 08:50:27;;;;;;;;;;;;;;;19.85;33.36;100577.41;10571449;28;19938;-83
2023/04/23 08:55:29;;;;;;;;;;;;;;;19.45;34.59;100572.41;10519411;28;20311;-81
2023/04/23 09:00:33;;;;;;;;;;;;;;;19.44;34.83;100565.22;10550594;28;20129;-79
2023/04/23 09:05:36;;;;;;;;;;;;;;;19.29;34.34;100574.19;10588595;28;19924;-81
2023/04/23 09:10:41;;;;;;;;;;;;;;;19.41;34.21;100570.63;10539488;28;19924;-84
2023/04/23 09:15:43;;;;;;;;;;;;;;;19.20;33.23;100568.69;10558138;28;19923;-83
2023/04/23 09:20:45;;;;;;;;;;;;;;;18.64;33.39;100559.81;10563137;28;19946;-79
2023/04/23 09:25:47;;;;;;;;;;;;;;;17.52;34.26;100562.19;10553196;28;19924;-80
2023/04/23 09:30:49;;;;;;;;;;;;;;;16.87;35.17;100569.59;10562686;28;19924;-83
2023/04/23 09:35:51;;;;;;;;;;;;;;;16.24;34.45;100568.94;10559198;28;20394;-82
2023/04/23 09:40:54;;;;;;;;;;;;;;;16.12;34.82;100563.19;10555825;28;19924;-85
2023/04/23 09:45:56;;;;;;;;;;;;;;;16.17;34.80;100557.53;10563599;28;19928;-80
2023/04/23 09:50:58;;;;;;;;;;;;;;;16.57;34.97;100561.03;10557704;28;19924;-84
2023/04/23 09:56:00;;;;;;;;;;;;;;;16.39;34.43;100566.84;10504598;28;19924;-82
2023/04/23 10:01:06;;;;;;;;;;;;;;;16.20;34.36;100572.66;10543100;28;19920;-80
2023/04/23 10:06:12;;;;;;;;;;;;;;;16.14;34.96;100573.94;10580767;28;20018;-82
2023/04/23 10:11:14;;;;;;;;;;;;;;;16.02;35.32;100576.50;10583989;28;20306;-85
2023/04/23 10:16:17;;;;;;;;;;;;;;;16.31;35.26;100562.91;10499052;28;19929;-80
2023/04/23 10:21:19;;;;;;;;;;;;;;;16.54;35.76;100574.72;10514475;28;19920;-81
2023/04/23 10:26:22;;;;;;;;;;;;;;;16.81;35.00;100562.56;10520849;28;19920;-83
2023/04/23 10:31:24;;;;;;;;;;;;;;;16.65;34.89;100562.19;10510258;28;19920;-80
2023/04/23 10:36:27;;;;;;;;;;;;;;;16.49;35.06;100552.72;10544045;28;19928;-81
2023/04/23 10:41:36;;;;;;;;;;;;;;;16.42;35.52;100569.78;10525833;28;20415;-81
2023/04/23 10:46:38;;;;;;;;;;;;;;;15.86;36.73;100563.09;10540858;28;19931;-84
2023/04/23 10:51:41;;;;;;;;;;;;;;;15.72;37.48;100556.81;10522294;28;19924;-81
2023/04/23 10:56:43;;;;;;;;;;;;;;;15.83;37.86;100565.69;10552172;28;20468;-82
2023/04/23 11:01:49;;;;;;;;;;;;;;;15.88;38.25;100560.81;10529569;28;19924;-79
2023/04/23 11:06:52;;;;;;;;;;;;;;;15.81;38.33;100557.69;10548486;28;19924;-82
2023/04/23 11:11:54;;;;;;;;;;;;;;;15.69;38.50;100560.22;10537894;28;20383;-80
2023/04/23 11:16:56;;;;;;;;;;;;;;;15.89;38.68;100561.63;10546670;28;19923;-79
2023/04/23 11:21:58;;;;;;;;;;;;;;;16.01;38.87;100548.00;10555227;28;20314;-81
2023/04/23 11:27:01;;;;;;;;;;;;;;;15.97;38.33;100547.03;10575358;28;19919;-82
2023/04/23 11:32:09;;;;;;;;;;;;;;;15.87;38.80;100542.56;10561876;28;19928;-79
2023/04/23 11:37:14;;;;;;;;;;;;;;;15.96;38.89;100543.41;10589645;28;20295;-82
2023/04/23 11:42:18;;;;;;;;;;;;;;;16.05;38.61;100542.66;10536492;28;20014;-83
2023/04/23 11:47:20;;;;;;;;;;;;;;;16.04;38.60;100546.56;10561152;28;21015;-85
2023/04/23 11:52:22;;;;;;;;;;;;;;;15.86;38.53;100542.91;10555707;28;19957;-82
2023/04/23 11:57:25;;;;;;;;;;;;;;;15.81;39.26;100537.50;10561706;28;19930;-83
2023/04/23 12:02:27;;;;;;;;;;;;;;;15.66;39.34;100538.75;10565435;28;19928;-80
2023/04/23 12:07:32;;;;;;;;;;;;;;;15.63;39.43;100545.72;10538463;28;19924;-81
2023/04/23 12:12:34;;;;;;;;;;;;;;;15.67;38.83;100537.59;10565633;28;20314;-81
2023/04/23 12:17:36;;;;;;;;;;;;;;;15.67;39.36;100532.06;10516141;28;19928;-82
2023/04/23 12:22:38;;;;;;;;;;;;;;;15.68;39.22;100528.97;10545940;28;19927;-79
2023/04/23 12:27:41;;;;;;;;;;;;;;;15.87;39.11;100525.16;10567060;28;19928;-80
2023/04/23 12:32:43;;;;;;;;;;;;;;;15.90;39.21;100511.50;10544530;28;19931;-79
2023/04/23 12:37:45;;;;;;;;;;;;;;;15.92;39.53;100511.97;10582766;28;19924;-80
2023/04/23 12:42:47;;;;;;;;;;;;;;;16.10;39.09;100506.50;10583116;28;19923;-80
2023/04/23 12:47:49;;;;;;;;;;;;;;;16.15;38.70;100498.06;10618440;28;19924;-80
2023/04/23 12:52:50;;;;;;;;;;;;;;;16.07;38.68;100491.38;10618459;28;20399;-79
2023/04/23 12:57:52;;;;;;;;;;;;;;;16.05;38.62;100492.81;10615959;28;19923;-79
2023/04/23 13:02:55;;;;;;;;;;;;;;;16.17;38.37;100490.25;10592691;28;19924;-80
2023/04/23 13:07:57;;;;;;;;;;;;;;;16.14;37.92;100482.56;10533034;28;19928;-81
2023/04/23 13:12:59;;;;;;;;;;;;;;;16.29;37.76;100476.59;10532530;28;19950;-81
2023/04/23 13:18:01;;;;;;;;;;;;;;;16.41;37.60;100476.78;10532774;28;19931;-80
2023/04/23 13:23:03;;;;;;;;;;;;;;;16.31;37.52;100474.31;10531979;28;19925;-79
2023/04/23 13:28:05;;;;;;;;;;;;;;;16.42;37.78;100470.09;10531914;28;19960;-79
2023/04/23 13:33:07;;;;;;;;;;;;;;;16.39;37.47;100467.16;10530638;28;20289;-80
2023/04/23 13:38:09;;;;;;;;;;;;;;;16.26;37.80;100461.44;10480624;28;20128;-79
2023/04/23 13:43:11;;;;;;;;;;;;;;;16.27;37.94;100459.47;10530593;28;19925;-81
2023/04/23 13:48:13;;;;;;;;;;;;;;;16.14;37.39;100460.44;10568964;28;19924;-80
2023/04/23 13:53:15;;;;;;;;;;;;;;;16.11;38.14;100447.25;10554662;28;19924;-80
2023/04/23 13:58:17;;;;;;;;;;;;;;;16.16;37.78;100450.69;10554105;28;19932;-80
2023/04/23 14:03:19;;;;;;;;;;;;;;;16.08;38.11;100442.34;10556801;28;19924;-81
2023/04/23 14:08:21;;;;;;;;;;;;;;;16.18;38.19;100436.53;10561644;28;20023;-80
2023/04/23 14:13:23;;;;;;;;;;;;;;;16.10;38.24;100443.66;10576077;28;19924;-81
2023/04/23 14:18:25;;;;;;;;;;;;;;;16.00;38.83;100424.59;10532577;28;20166;-82
2023/04/23 14:23:26;;;;;;;;;;;;;;;16.01;38.75;100419.88;10571621;28;19927;-81
2023/04/23 14:28:32;;;;;;;;;;;;;;;16.09;38.60;100425.41;10571443;28;19963;-81
2023/04/23 14:33:34;;;;;;;;;;;;;;;16.16;38.29;100416.66;10570485;28;19924;-82
2023/04/23 14:38:36;;;;;;;;;;;;;;;16.11;37.95;100414.84;10565917;28;19946;-81
2023/04/23 14:43:38;;;;;;;;;;;;;;;16.13;38.30;100401.47;10553199;28;19934;-82
2023/04/23 14:48:40;;;;;;;;;;;;;;;16.08;38.20;100403.59;10570671;28;20407;-82
2023/04/23 14:53:42;;;;;;;;;;;;;;;16.02;38.37;100393.84;10570111;28;19930;-82
2023/04/23 14:58:44;;;;;;;;;;;;;;;16.12;38.45;100397.09;10570478;28;19931;-80
2023/04/23 15:03:46;;;;;;;;;;;;;;;16.26;38.24;100383.91;10569794;28;19924;-82
2023/04/23 15:08:48;;;;;;;;;;;;;;;16.24;38.37;100383.41;10569655;28;20339;-81
2023/04/23 15:14:19;;;;;;;;;;;;;;;16.24;38.50;100386.19;10551679;28;19931;-79
2023/04/23 15:19:21;;;;;;;;;;;;;;;16.28;38.09;100375.28;10571047;28;20035;-80
2023/04/23 15:24:25;;;;;;;;;;;;;;;16.28;38.07;100375.28;10551378;28;21292;-80
2023/04/23 15:29:27;;;;;;;;;;;;;;;16.36;38.44;100371.72;10569948;28;19930;-81
2023/04/23 15:34:29;;;;;;;;;;;;;;;16.43;38.01;100371.19;10568952;28;20137;-80
2023/04/23 15:39:31;;;;;;;;;;;;;;;16.24;38.65;100366.81;10568549;28;19924;-80
2023/04/23 15:44:33;;;;;;;;;;;;;;;16.21;38.32;100363.88;10546748;28;20541;-81
2023/04/23 15:49:35;;;;;;;;;;;;;;;16.23;37.86;100361.59;10568134;28;19924;-79
2023/04/23 15:54:37;;;;;;;;;;;;;;;16.35;38.31;100367.31;10549881;28;20014;-80
2023/04/23 15:59:38;;;;;;;;;;;;;;;16.34;38.60;100362.91;10568465;28;19931;-81
2023/04/23 16:04:40;;;;;;;;;;;;;;;16.28;38.49;100362.25;10568435;28;19930;-80
2023/04/23 16:09:42;;;;;;;;;;;;;;;16.29;38.35;100357.53;10567964;28;19924;-81
2023/04/23 16:14:47;;;;;;;;;;;;;;;16.32;38.51;100354.13;10568366;28;19931;-82
2023/04/23 16:19:54;;;;;;;;;;;;;;;16.29;38.50;100357.53;10550061;28;20081;-83
2023/04/23 16:24:56;;;;;;;;;;;;;;;16.27;38.46;100351.50;10568442;28;19920;-81
2023/04/23 16:29:58;;;;;;;;;;;;;;;16.19;38.73;100341.25;10567651;28;19934;-81
2023/04/23 16:35:00;;;;;;;;;;;;;;;16.16;38.81;100345.50;10549500;28;20406;-81
2023/04/23 16:40:02;;;;;;;;;;;;;;;16.28;39.19;100342.03;10563362;28;19967;-81
2023/04/23 16:45:05;;;;;;;;;;;;;;;16.17;40.50;100347.13;10533240;28;20394;-80
2023/04/23 16:50:08;;;;;;;;;;;;;;;15.82;42.05;100346.28;10567379;28;20410;-81
2023/04/23 16:55:10;;;;;;;;;;;;;;;15.48;43.23;100351.69;10550108;28;19924;-83
2023/04/23 17:00:12;;;;;;;;;;;;;;;15.06;44.38;100346.50;10567548;28;19932;-81
2023/04/23 17:05:22;;;;;;;;;;;;;;;14.72;44.88;100354.59;10517878;28;19924;-80
2023/04/23 17:10:24;;;;;;;;;;;;;;;14.53;45.73;100354.81;10515516;28;19978;-80
2023/04/23 17:15:26;;;;;;;;;;;;;;;14.42;45.46;100347.88;10533159;28;19924;-82
2023/04/23 17:20:33;;;;;;;;;;;;;;;14.20;46.13;100365.22;10514536;28;19928;-82
2023/04/23 17:25:35;;;;;;;;;;;;;;;13.93;47.21;100363.38;10514403;28;19921;-82
2023/04/23 17:30:37;;;;;;;;;;;;;;;13.72;47.61;100362.22;10514700;28;20839;-82
2023/04/23 17:35:39;;;;;;;;;;;;;;;13.53;47.32;100376.09;10531535;28;19956;-82
2023/04/23 17:40:41;;;;;;;;;;;;;;;13.30;48.85;100377.13;10531560;28;19924;-82
2023/04/23 17:45:44;;;;;;;;;;;;;;;13.17;48.95;100373.19;10530826;28;20399;-81
2023/04/23 17:50:46;;;;;;;;;;;;;;;13.18;49.47;100374.84;10530908;28;19932;-80
2023/04/23 17:55:48;;;;;;;;;;;;;;;13.13;49.18;100372.19;10512893;28;20015;-82
2023/04/23 18:00:50;;;;;;;;;;;;;;;13.00;49.19;100368.28;10530790;28;19947;-81
2023/04/23 18:05:52;;;;;;;;;;;;;;;12.98;49.96;100365.00;10535372;28;19931;-81
2023/04/23 18:10:54;;;;;;;;;;;;;;;12.89;50.36;100355.84;10569958;28;19963;-81
2023/04/23 18:15:57;;;;;;;;;;;;;;;12.77;50.17;100356.31;10579628;28;20414;-81
2023/04/23 18:21:01;;;;;;;;;;;;;;;12.72;50.44;100352.84;10596410;28;19927;-80
2023/04/23 18:26:03;;;;;;;;;;;;;;;12.61;50.62;100350.25;10613764;28;19923;-81
2023/04/23 18:31:05;;;;;;;;;;;;;;;12.49;50.84;100341.66;10518859;28;19924;-80
2023/04/23 18:36:23;;;;;;;;;;;;;;;12.37;50.21;100347.63;10529285;28;19924;-82
2023/04/23 18:41:28;;;;;;;;;;;;;;;12.32;51.10;100336.72;10523028;28;19924;-80
2023/04/23 18:46:30;;;;;;;;;;;;;;;12.43;50.93;100336.53;10529162;28;19925;-80
2023/04/23 18:51:36;;;;;;;;;;;;;;;12.37;50.43;100333.88;10527381;28;19924;-79
2023/04/23 18:56:38;;;;;;;;;;;;;;;12.35;51.06;100324.28;10501572;28;20323;-81
2023/04/23 19:01:42;;;;;;;;;;;;;;;12.30;50.54;100319.66;10511069;28;19931;-81
2023/04/23 19:06:44;;;;;;;;;;;;;;;12.36;50.64;100323.19;10510546;28;19925;-82
2023/04/23 19:11:46;;;;;;;;;;;;;;;12.36;50.46;100321.25;10528251;28;19924;-81
2023/04/23 19:16:49;;;;;;;;;;;;;;;12.35;49.77;100321.53;10527844;28;19924;-81
2023/04/23 19:21:51;;;;;;;;;;;;;;;12.24;49.63;100309.88;10510320;28;19924;-81
2023/04/23 19:26:53;;;;;;;;;;;;;;;12.29;50.37;100311.72;10509811;28;20316;-80
2023/04/23 19:31:55;;;;;;;;;;;;;;;12.21;50.13;100304.97;10527570;28;19932;-80
2023/04/23 19:36:57;;;;;;;;;;;;;;;12.05;49.68;100296.16;10527234;28;20018;-80
2023/04/23 19:42:01;;;;;;;;;;;;;;;12.00;49.76;100284.44;10527284;28;19928;-82
2023/04/23 19:47:03;;;;;;;;;;;;;;;11.93;50.14;100284.78;10509626;28;19932;-81
2023/04/23 19:52:14;;;;;;;;;;;;;;;11.88;50.79;100279.38;10525984;28;19924;-82
2023/04/23 19:57:21;;;;;;;;;;;;;;;11.80;51.37;100268.22;10509713;28;19924;-82
2023/04/23 20:02:23;;;;;;;;;;;;;;;11.74;51.51;100268.28;10551440;28;19930;-83
2023/04/23 20:07:25;;;;;;;;;;;;;;;11.71;51.23;100260.63;10529457;28;19924;-83
2023/04/23 20:12:28;;;;;;;;;;;;;;;11.71;52.06;100254.31;10565975;28;20493;-79
2023/04/23 20:17:31;;;;;;;;;;;;;;;11.70;51.36;100253.50;10550604;28;20515;-81
2023/04/23 20:22:33;;;;;;;;;;;;;;;11.68;52.25;100250.25;10531262;28;19934;-83
2023/04/23 20:27:35;;;;;;;;;;;;;;;11.66;51.66;100248.91;10551204;28;20311;-80
2023/04/23 20:32:37;;;;;;;;;;;;;;;11.65;51.39;100236.28;10551088;28;19928;-80
2023/04/23 20:37:39;;;;;;;;;;;;;;;11.55;52.83;100237.25;10543508;28;20496;-82
2023/04/23 20:42:42;;;;;;;;;;;;;;;11.55;51.97;100228.19;10548291;28;19931;-83
2023/04/23 20:47:45;;;;;;;;;;;;;;;11.58;52.89;100222.91;10581764;28;19923;-81
2023/04/23 20:52:52;;;;;;;;;;;;;;;11.54;52.04;100221.88;10576675;28;19931;-80
2023/04/23 20:57:54;;;;;;;;;;;;;;;11.47;53.06;100215.94;10540999;28;19923;-81
2023/04/23 21:02:55;;;;;;;;;;;;;;;11.53;52.65;100213.94;10571393;28;19927;-79
2023/04/23 21:07:57;;;;;;;;;;;;;;;11.50;52.32;100215.34;10582765;28;19923;-82
2023/04/23 21:12:59;;;;;;;;;;;;;;;11.54;52.69;100208.13;10563040;28;20288;-82
2023/04/23 21:18:03;;;;;;;;;;;;;;;11.55;52.45;100209.75;10580216;28;20387;-82
2023/04/23 21:23:05;;;;;;;;;;;;;;;11.53;52.88;100212.00;10582862;28;20217;-81
2023/04/23 21:28:07;;;;;;;;;;;;;;;11.57;52.94;100209.47;10580542;28;19924;-82
2023/04/23 21:33:09;;;;;;;;;;;;;;;11.61;53.24;100211.31;10551923;28;20500;-81
2023/04/23 21:38:11;;;;;;;;;;;;;;;11.70;52.64;100204.03;10552719;28;19930;-82
2023/04/23 21:43:13;;;;;;;;;;;;;;;11.66;53.04;100204.94;10556794;28;19931;-81
2023/04/23 21:48:14;;;;;;;;;;;;;;;11.77;52.84;100198.97;10568694;28;19924;-82
2023/04/23 21:53:17;;;;;;;;;;;;;;;11.84;51.87;100204.13;10565744;28;19924;-80
2023/04/23 21:58:19;;;;;;;;;;;;;;;11.74;51.91;100199.56;10554230;28;20554;-79
2023/04/23 22:03:21;;;;;;;;;;;;;;;11.73;51.74;100192.44;10585766;28;19931;-79
2023/04/23 22:08:23;;;;;;;;;;;;;;;11.88;51.75;100207.09;10562390;28;20342;-83
2023/04/23 22:13:25;;;;;;;;;;;;;;;12.01;51.77;100198.88;10600559;28;19923;-83
2023/04/23 22:18:27;;;;;;;;;;;;;;;12.31;51.19;100197.50;10568939;28;19938;-79
2023/04/23 22:23:29;;;;;;;;;;;;;;;12.50;51.12;100202.94;10546149;28;20279;-81
2023/04/23 22:28:31;;;;;;;;;;;;;;;12.61;50.52;100206.31;10525004;28;19924;-80
2023/04/23 22:33:33;;;;;;;;;;;;;;;12.77;50.22;100193.06;10565421;28;19937;-78
2023/04/23 22:38:35;;;;;;;;;;;;;;;12.78;49.86;100198.25;10512332;28;20445;-80
2023/04/23 22:43:38;;;;;;;;;;;;;;;12.83;50.07;100192.63;10563977;28;19924;-82
2023/04/23 22:48:43;;;;;;;;;;;;;;;12.89;49.42;100188.66;10550510;28;20307;-81
2023/04/23 22:53:45;;;;;;;;;;;;;;;12.90;49.08;100189.47;10541426;28;20190;-80
2023/04/23 22:58:47;;;;;;;;;;;;;;;12.92;49.86;100182.53;10569745;28;20144;-83
2023/04/23 23:03:49;;;;;;;;;;;;;;;12.98;49.74;100188.75;10555875;28;20015;-79
2023/04/23 23:08:54;;;;;;;;;;;;;;;12.98;49.30;100173.03;10564483;28;19931;-83
2023/04/23 23:13:56;;;;;;;;;;;;;;;12.97;49.16;100168.66;10547909;28;19924;-82
2023/04/23 23:18:57;;;;;;;;;;;;;;;12.99;49.11;100174.66;10539094;28;19924;-81
2023/04/23 23:24:00;;;;;;;;;;;;;;;12.96;49.04;100164.25;10564194;28;19928;-82
2023/04/23 23:29:02;;;;;;;;;;;;;;;12.87;49.12;100152.38;10538532;28;20421;-82
2023/04/23 23:34:04;;;;;;;;;;;;;;;12.89;49.69;100149.31;10561123;28;19925;-80
2023/04/23 23:39:06;;;;;;;;;;;;;;;12.93;49.67;100142.84;10563172;28;19923;-80
2023/04/23 23:44:08;;;;;;;;;;;;;;;12.90;49.29;100140.72;10555117;28;19931;-80
2023/04/23 23:49:10;;;;;;;;;;;;;;;12.94;49.49;100138.97;10540785;28;20028;-80
2023/04/23 23:54:12;;;;;;;;;;;;;;;12.97;49.32;100141.09;10543392;28;19924;-82
2023/04/23 23:59:14;;;;;;;;;;;;;;;12.99;49.11;100127.03;10563183;28;19928;-80
